sensor_id;sensor_type;location;lat;lon;timestamp;P1;durP1;ratioP1;P2;durP2;ratioP2
9860;SDS011;4969;52.304;4.968;2023-04-24T00:01:19;30.08;;;26.83;;
9860;SDS011;4969;52.304;4.968;2023-04-24T00:03:46;32.40;;;28.95;;
9860;SDS011;4969;52.304;4.968;2023-04-24T00:06:12;18.13;;;16.33;;
9860;SDS011;4969;52.304;4.968;2023-04-24T00:08:43;11.15;;;10.18;;
9860;SDS011;4969;52.304;4.968;2023-04-24T00:11:09;5.78;;;5.47;;
9860;SDS011;4969;52.304;4.968;2023-04-24T00:13:36;6.97;;;6.38;;
9860;SDS011;4969;52.304;4.968;2023-04-24T00:16:04;8.82;;;7.75;;
9860;SDS011;4969;52.304;4.968;2023-04-24T00:18:30;2.25;;;1.83;;
9860;SDS011;4969;52.304;4.968;2023-04-24T00:20:57;7.50;;;4.90;;
9860;SDS011;4969;52.304;4.968;2023-04-24T00:23:24;5.13;;;4.27;;
9860;SDS011;4969;52.304;4.968;2023-04-24T00:25:52;5.23;;;1.47;;
9860;SDS011;4969;52.304;4.968;2023-04-24T00:28:18;11.10;;;9.93;;
9860;SDS011;4969;52.304;4.968;2023-04-24T00:30:45;1.10;;;1.00;;
9860;SDS011;4969;52.304;4.968;2023-04-24T00:33:11;6.37;;;5.73;;
9860;SDS011;4969;52.304;4.968;2023-04-24T00:35:38;1.10;;;1.10;;
9860;SDS011;4969;52.304;4.968;2023-04-24T00:38:05;3.70;;;3.30;;
9860;SDS011;4969;52.304;4.968;2023-04-24T00:40:31;4.43;;;4.07;;
9860;SDS011;4969;52.304;4.968;2023-04-24T00:42:59;6.00;;;5.40;;
9860;SDS011;4969;52.304;4.968;2023-04-24T00:45:26;3.13;;;2.93;;
9860;SDS011;4969;52.304;4.968;2023-04-24T00:47:52;14.70;;;13.10;;
9860;SDS011;4969;52.304;4.968;2023-04-24T00:50:20;8.57;;;7.70;;
9860;SDS011;4969;52.304;4.968;2023-04-24T00:52:47;9.43;;;8.57;;
9860;SDS011;4969;52.304;4.968;2023-04-24T00:55:14;26.70;;;22.60;;
9860;SDS011;4969;52.304;4.968;2023-04-24T00:57:41;3.03;;;2.50;;
9860;SDS011;4969;52.304;4.968;2023-04-24T01:00:10;15.13;;;13.53;;
9860;SDS011;4969;52.304;4.968;2023-04-24T01:02:38;6.40;;;5.22;;
9860;SDS011;4969;52.304;4.968;2023-04-24T01:05:09;5.90;;;5.28;;
9860;SDS011;4969;52.304;4.968;2023-04-24T01:07:36;12.17;;;10.90;;
9860;SDS011;4969;52.304;4.968;2023-04-24T01:10:04;4.07;;;2.93;;
9860;SDS011;4969;52.304;4.968;2023-04-24T01:12:31;12.77;;;11.47;;
9860;SDS011;4969;52.304;4.968;2023-04-24T01:14:58;12.05;;;10.80;;
9860;SDS011;4969;52.304;4.968;2023-04-24T01:17:27;9.32;;;8.30;;
9860;SDS011;4969;52.304;4.968;2023-04-24T01:19:53;7.03;;;5.80;;
9860;SDS011;4969;52.304;4.968;2023-04-24T01:22:23;2.05;;;1.77;;
9860;SDS011;4969;52.304;4.968;2023-04-24T01:24:49;16.38;;;14.73;;
9860;SDS011;4969;52.304;4.968;2023-04-24T01:27:16;8.63;;;7.05;;
9860;SDS011;4969;52.304;4.968;2023-04-24T01:29:42;19.45;;;17.45;;
9860;SDS011;4969;52.304;4.968;2023-04-24T01:32:09;5.32;;;4.88;;
9860;SDS011;4969;52.304;4.968;2023-04-24T01:34:36;18.23;;;16.38;;
9860;SDS011;4969;52.304;4.968;2023-04-24T01:37:03;20.45;;;18.35;;
9860;SDS011;4969;52.304;4.968;2023-04-24T01:39:32;8.75;;;7.85;;
9860;SDS011;4969;52.304;4.968;2023-04-24T01:41:59;8.15;;;7.30;;
9860;SDS011;4969;52.304;4.968;2023-04-24T01:44:26;15.40;;;13.80;;
9860;SDS011;4969;52.304;4.968;2023-04-24T01:46:54;1.20;;;1.10;;
9860;SDS011;4969;52.304;4.968;2023-04-24T01:49:21;3.20;;;2.42;;
9860;SDS011;4969;52.304;4.968;2023-04-24T01:51:47;1.58;;;1.25;;
9860;SDS011;4969;52.304;4.968;2023-04-24T01:54:14;3.15;;;2.80;;
9860;SDS011;4969;52.304;4.968;2023-04-24T01:56:42;15.23;;;13.55;;
9860;SDS011;4969;52.304;4.968;2023-04-24T01:59:09;5.30;;;4.80;;
9860;SDS011;4969;52.304;4.968;2023-04-24T02:01:37;6.50;;;3.90;;
9860;SDS011;4969;52.304;4.968;2023-04-24T02:04:05;6.00;;;5.13;;
9860;SDS011;4969;52.304;4.968;2023-04-24T02:06:32;10.77;;;9.47;;
9860;SDS011;4969;52.304;4.968;2023-04-24T02:08:59;4.50;;;3.63;;
9860;SDS011;4969;52.304;4.968;2023-04-24T02:11:26;7.05;;;6.35;;
9860;SDS011;4969;52.304;4.968;2023-04-24T02:13:54;7.82;;;6.97;;
9860;SDS011;4969;52.304;4.968;2023-04-24T02:16:20;5.97;;;2.53;;
9860;SDS011;4969;52.304;4.968;2023-04-24T02:18:47;1.07;;;0.63;;
9860;SDS011;4969;52.304;4.968;2023-04-24T02:21:13;12.63;;;11.33;;
9860;SDS011;4969;52.304;4.968;2023-04-24T02:23:40;5.07;;;4.45;;
9860;SDS011;4969;52.304;4.968;2023-04-24T02:26:07;9.95;;;8.95;;
9860;SDS011;4969;52.304;4.968;2023-04-24T02:28:33;8.02;;;7.22;;
9860;SDS011;4969;52.304;4.968;2023-04-24T02:31:01;7.35;;;6.65;;
9860;SDS011;4969;52.304;4.968;2023-04-24T02:33:28;7.32;;;6.60;;
9860;SDS011;4969;52.304;4.968;2023-04-24T02:35:54;3.83;;;3.38;;
9860;SDS011;4969;52.304;4.968;2023-04-24T02:38:21;4.68;;;2.13;;
9860;SDS011;4969;52.304;4.968;2023-04-24T02:40:47;3.08;;;2.25;;
9860;SDS011;4969;52.304;4.968;2023-04-24T02:43:14;0.77;;;0.77;;
9860;SDS011;4969;52.304;4.968;2023-04-24T02:45:40;10.60;;;9.50;;
9860;SDS011;4969;52.304;4.968;2023-04-24T02:48:08;2.70;;;2.50;;
9860;SDS011;4969;52.304;4.968;2023-04-24T02:50:35;5.95;;;5.35;;
9860;SDS011;4969;52.304;4.968;2023-04-24T02:53:02;8.48;;;7.70;;
9860;SDS011;4969;52.304;4.968;2023-04-24T02:55:28;1.20;;;1.10;;
9860;SDS011;4969;52.304;4.968;2023-04-24T02:57:55;2.10;;;0.77;;
9860;SDS011;4969;52.304;4.968;2023-04-24T03:00:21;2.33;;;2.13;;
9860;SDS011;4969;52.304;4.968;2023-04-24T03:02:48;2.83;;;2.60;;
9860;SDS011;4969;52.304;4.968;2023-04-24T03:05:16;4.90;;;4.47;;
9860;SDS011;4969;52.304;4.968;2023-04-24T03:07:43;1.30;;;1.17;;
9860;SDS011;4969;52.304;4.968;2023-04-24T03:10:10;2.27;;;2.07;;
9860;SDS011;4969;52.304;4.968;2023-04-24T03:12:37;0.93;;;0.40;;
9860;SDS011;4969;52.304;4.968;2023-04-24T03:15:03;8.30;;;7.50;;
9860;SDS011;4969;52.304;4.968;2023-04-24T03:17:31;6.60;;;6.00;;
9860;SDS011;4969;52.304;4.968;2023-04-24T03:19:57;3.78;;;3.47;;
9860;SDS011;4969;52.304;4.968;2023-04-24T03:22:25;5.53;;;5.03;;
9860;SDS011;4969;52.304;4.968;2023-04-24T03:24:52;7.45;;;6.75;;
9860;SDS011;4969;52.304;4.968;2023-04-24T03:27:19;3.05;;;2.60;;
9860;SDS011;4969;52.304;4.968;2023-04-24T03:29:46;2.70;;;2.50;;
9860;SDS011;4969;52.304;4.968;2023-04-24T03:32:12;5.70;;;5.22;;
9860;SDS011;4969;52.304;4.968;2023-04-24T03:34:39;6.38;;;5.78;;
9860;SDS011;4969;52.304;4.968;2023-04-24T03:37:06;4.50;;;3.85;;
9860;SDS011;4969;52.304;4.968;2023-04-24T03:39:34;5.97;;;5.43;;
9860;SDS011;4969;52.304;4.968;2023-04-24T03:42:00;3.75;;;3.45;;
9860;SDS011;4969;52.304;4.968;2023-04-24T03:44:27;5.88;;;5.32;;
9860;SDS011;4969;52.304;4.968;2023-04-24T03:46:54;4.55;;;4.13;;
9860;SDS011;4969;52.304;4.968;2023-04-24T03:49:20;5.20;;;4.80;;
9860;SDS011;4969;52.304;4.968;2023-04-24T03:51:47;2.45;;;2.25;;
9860;SDS011;4969;52.304;4.968;2023-04-24T03:54:13;5.00;;;4.50;;
9860;SDS011;4969;52.304;4.968;2023-04-24T03:56:41;3.45;;;2.58;;
9860;SDS011;4969;52.304;4.968;2023-04-24T03:59:08;3.83;;;2.93;;
9860;SDS011;4969;52.304;4.968;2023-04-24T04:01:34;2.30;;;2.10;;
9860;SDS011;4969;52.304;4.968;2023-04-24T04:04:02;2.83;;;2.63;;
9860;SDS011;4969;52.304;4.968;2023-04-24T04:06:28;3.97;;;3.23;;
9860;SDS011;4969;52.304;4.968;2023-04-24T04:08:55;1.90;;;1.80;;
9860;SDS011;4969;52.304;4.968;2023-04-24T04:11:22;1.60;;;1.27;;
9860;SDS011;4969;52.304;4.968;2023-04-24T04:13:50;5.47;;;3.80;;
9860;SDS011;4969;52.304;4.968;2023-04-24T04:16:16;2.53;;;2.20;;
9860;SDS011;4969;52.304;4.968;2023-04-24T04:18:43;2.40;;;0.90;;
9860;SDS011;4969;52.304;4.968;2023-04-24T04:21:11;2.07;;;1.83;;
9860;SDS011;4969;52.304;4.968;2023-04-24T04:23:37;1.83;;;1.30;;
9860;SDS011;4969;52.304;4.968;2023-04-24T04:26:04;1.37;;;1.00;;
9860;SDS011;4969;52.304;4.968;2023-04-24T04:28:33;2.10;;;1.97;;
9860;SDS011;4969;52.304;4.968;2023-04-24T04:31:01;2.80;;;2.20;;
9860;SDS011;4969;52.304;4.968;2023-04-24T04:33:27;1.47;;;1.37;;
9860;SDS011;4969;52.304;4.968;2023-04-24T04:35:55;4.50;;;3.80;;
9860;SDS011;4969;52.304;4.968;2023-04-24T04:38:22;0.50;;;0.50;;
9860;SDS011;4969;52.304;4.968;2023-04-24T04:40:49;1.53;;;1.43;;
9860;SDS011;4969;52.304;4.968;2023-04-24T04:43:16;0.60;;;0.60;;
9860;SDS011;4969;52.304;4.968;2023-04-24T04:45:42;0.70;;;0.70;;
9860;SDS011;4969;52.304;4.968;2023-04-24T04:48:11;2.43;;;0.70;;
9860;SDS011;4969;52.304;4.968;2023-04-24T04:50:38;3.27;;;1.30;;
9860;SDS011;4969;52.304;4.968;2023-04-24T04:53:05;2.93;;;0.40;;
9860;SDS011;4969;52.304;4.968;2023-04-24T04:55:32;0.60;;;0.60;;
9860;SDS011;4969;52.304;4.968;2023-04-24T04:57:58;0.63;;;0.50;;
9860;SDS011;4969;52.304;4.968;2023-04-24T05:00:26;0.60;;;0.60;;
9860;SDS011;4969;52.304;4.968;2023-04-24T05:02:54;1.53;;;1.13;;
9860;SDS011;4969;52.304;4.968;2023-04-24T05:05:21;0.80;;;0.80;;
9860;SDS011;4969;52.304;4.968;2023-04-24T05:07:48;2.30;;;0.60;;
9860;SDS011;4969;52.304;4.968;2023-04-24T05:10:15;0.43;;;0.43;;
9860;SDS011;4969;52.304;4.968;2023-04-24T05:12:41;1.53;;;0.60;;
9860;SDS011;4969;52.304;4.968;2023-04-24T05:15:08;0.63;;;0.60;;
9860;SDS011;4969;52.304;4.968;2023-04-24T05:17:35;1.93;;;0.70;;
9860;SDS011;4969;52.304;4.968;2023-04-24T05:20:01;2.00;;;0.70;;
9860;SDS011;4969;52.304;4.968;2023-04-24T05:22:31;0.90;;;0.70;;
9860;SDS011;4969;52.304;4.968;2023-04-24T05:24:58;1.40;;;0.70;;
9860;SDS011;4969;52.304;4.968;2023-04-24T05:27:24;1.00;;;0.87;;
9860;SDS011;4969;52.304;4.968;2023-04-24T05:29:51;2.00;;;1.80;;
9860;SDS011;4969;52.304;4.968;2023-04-24T05:32:17;1.17;;;1.10;;
9860;SDS011;4969;52.304;4.968;2023-04-24T05:34:44;2.10;;;1.90;;
9860;SDS011;4969;52.304;4.968;2023-04-24T05:37:11;3.40;;;3.20;;
9860;SDS011;4969;52.304;4.968;2023-04-24T05:39:39;5.37;;;4.60;;
9860;SDS011;4969;52.304;4.968;2023-04-24T05:42:06;6.20;;;4.90;;
9860;SDS011;4969;52.304;4.968;2023-04-24T05:44:33;6.17;;;5.60;;
9860;SDS011;4969;52.304;4.968;2023-04-24T05:46:59;9.03;;;8.03;;
9860;SDS011;4969;52.304;4.968;2023-04-24T05:49:26;10.33;;;9.13;;
9860;SDS011;4969;52.304;4.968;2023-04-24T05:51:53;12.60;;;10.10;;
9860;SDS011;4969;52.304;4.968;2023-04-24T05:54:20;10.73;;;9.70;;
9860;SDS011;4969;52.304;4.968;2023-04-24T05:56:47;12.97;;;10.40;;
9860;SDS011;4969;52.304;4.968;2023-04-24T05:59:15;14.57;;;11.60;;
9860;SDS011;4969;52.304;4.968;2023-04-24T06:01:41;13.03;;;11.37;;
9860;SDS011;4969;52.304;4.968;2023-04-24T06:04:08;18.07;;;11.40;;
9860;SDS011;4969;52.304;4.968;2023-04-24T06:06:34;13.30;;;11.37;;
9860;SDS011;4969;52.304;4.968;2023-04-24T06:09:01;17.37;;;12.83;;
9860;SDS011;4969;52.304;4.968;2023-04-24T06:11:28;18.03;;;13.80;;
9860;SDS011;4969;52.304;4.968;2023-04-24T06:13:56;16.83;;;12.93;;
9860;SDS011;4969;52.304;4.968;2023-04-24T06:16:23;14.33;;;11.47;;
9860;SDS011;4969;52.304;4.968;2023-04-24T06:18:50;16.10;;;12.03;;
9860;SDS011;4969;52.304;4.968;2023-04-24T06:21:16;14.73;;;10.27;;
9860;SDS011;4969;52.304;4.968;2023-04-24T06:23:43;15.70;;;10.83;;
9860;SDS011;4969;52.304;4.968;2023-04-24T06:26:11;15.93;;;9.33;;
9860;SDS011;4969;52.304;4.968;2023-04-24T06:28:38;15.27;;;9.33;;
9860;SDS011;4969;52.304;4.968;2023-04-24T06:31:06;11.40;;;8.60;;
9860;SDS011;4969;52.304;4.968;2023-04-24T06:33:32;17.93;;;9.27;;
9860;SDS011;4969;52.304;4.968;2023-04-24T06:35:59;11.23;;;8.13;;
9860;SDS011;4969;52.304;4.968;2023-04-24T06:38:25;13.50;;;7.93;;
9860;SDS011;4969;52.304;4.968;2023-04-24T06:40:52;12.07;;;8.20;;
9860;SDS011;4969;52.304;4.968;2023-04-24T06:43:18;12.17;;;7.93;;
9860;SDS011;4969;52.304;4.968;2023-04-24T06:45:45;12.53;;;8.20;;
9860;SDS011;4969;52.304;4.968;2023-04-24T06:48:13;11.53;;;8.27;;
9860;SDS011;4969;52.304;4.968;2023-04-24T06:50:40;14.63;;;8.07;;
9860;SDS011;4969;52.304;4.968;2023-04-24T06:53:06;11.63;;;7.80;;
9860;SDS011;4969;52.304;4.968;2023-04-24T06:55:33;13.20;;;8.07;;
9860;SDS011;4969;52.304;4.968;2023-04-24T06:58:00;12.90;;;8.17;;
9860;SDS011;4969;52.304;4.968;2023-04-24T07:00:26;12.13;;;7.93;;
9860;SDS011;4969;52.304;4.968;2023-04-24T07:02:54;14.37;;;7.83;;
9860;SDS011;4969;52.304;4.968;2023-04-24T07:05:23;13.20;;;8.30;;
9860;SDS011;4969;52.304;4.968;2023-04-24T07:07:50;15.60;;;8.30;;
9860;SDS011;4969;52.304;4.968;2023-04-24T07:10:17;16.03;;;8.20;;
9860;SDS011;4969;52.304;4.968;2023-04-24T07:12:43;16.17;;;7.63;;
9860;SDS011;4969;52.304;4.968;2023-04-24T07:15:10;11.83;;;7.50;;
9860;SDS011;4969;52.304;4.968;2023-04-24T07:17:37;13.70;;;7.50;;
9860;SDS011;4969;52.304;4.968;2023-04-24T07:20:08;20.53;;;8.57;;
9860;SDS011;4969;52.304;4.968;2023-04-24T07:22:37;18.47;;;7.33;;
9860;SDS011;4969;52.304;4.968;2023-04-24T07:25:04;17.00;;;5.53;;
9860;SDS011;4969;52.304;4.968;2023-04-24T07:27:31;18.07;;;6.60;;
9860;SDS011;4969;52.304;4.968;2023-04-24T07:29:57;19.13;;;6.60;;
9860;SDS011;4969;52.304;4.968;2023-04-24T07:32:24;14.00;;;5.50;;
9860;SDS011;4969;52.304;4.968;2023-04-24T07:34:51;10.27;;;4.57;;
9860;SDS011;4969;52.304;4.968;2023-04-24T07:37:17;14.17;;;5.27;;
9860;SDS011;4969;52.304;4.968;2023-04-24T07:39:45;14.70;;;5.60;;
9860;SDS011;4969;52.304;4.968;2023-04-24T07:42:12;17.00;;;6.07;;
9860;SDS011;4969;52.304;4.968;2023-04-24T07:44:39;13.50;;;4.63;;
9860;SDS011;4969;52.304;4.968;2023-04-24T07:47:05;17.00;;;5.23;;
9860;SDS011;4969;52.304;4.968;2023-04-24T07:49:32;12.67;;;4.67;;
9860;SDS011;4969;52.304;4.968;2023-04-24T07:51:59;10.00;;;3.90;;
9860;SDS011;4969;52.304;4.968;2023-04-24T07:54:27;10.87;;;4.07;;
9860;SDS011;4969;52.304;4.968;2023-04-24T07:56:56;13.03;;;4.50;;
9860;SDS011;4969;52.304;4.968;2023-04-24T07:59:22;13.93;;;4.60;;
9860;SDS011;4969;52.304;4.968;2023-04-24T08:01:49;14.80;;;4.73;;
9860;SDS011;4969;52.304;4.968;2023-04-24T08:04:15;14.57;;;3.53;;
9860;SDS011;4969;52.304;4.968;2023-04-24T08:06:42;17.40;;;4.47;;
9860;SDS011;4969;52.304;4.968;2023-04-24T08:09:09;10.03;;;4.10;;
9860;SDS011;4969;52.304;4.968;2023-04-24T08:11:36;11.10;;;3.87;;
9860;SDS011;4969;52.304;4.968;2023-04-24T08:14:04;13.37;;;3.30;;
9860;SDS011;4969;52.304;4.968;2023-04-24T08:16:32;12.63;;;3.83;;
9860;SDS011;4969;52.304;4.968;2023-04-24T08:18:58;15.23;;;3.80;;
9860;SDS011;4969;52.304;4.968;2023-04-24T08:21:25;8.87;;;2.80;;
9860;SDS011;4969;52.304;4.968;2023-04-24T08:23:52;11.73;;;3.40;;
9860;SDS011;4969;52.304;4.968;2023-04-24T08:26:18;9.10;;;2.80;;
9860;SDS011;4969;52.304;4.968;2023-04-24T08:28:45;9.90;;;3.00;;
9860;SDS011;4969;52.304;4.968;2023-04-24T08:31:13;16.07;;;3.30;;
9860;SDS011;4969;52.304;4.968;2023-04-24T08:33:39;7.67;;;2.63;;
9860;SDS011;4969;52.304;4.968;2023-04-24T08:36:06;12.23;;;3.10;;
9860;SDS011;4969;52.304;4.968;2023-04-24T08:38:33;10.03;;;3.23;;
9860;SDS011;4969;52.304;4.968;2023-04-24T08:41:01;8.33;;;2.70;;
9860;SDS011;4969;52.304;4.968;2023-04-24T08:43:27;8.90;;;2.97;;
9860;SDS011;4969;52.304;4.968;2023-04-24T08:45:55;7.57;;;2.53;;
9860;SDS011;4969;52.304;4.968;2023-04-24T08:48:24;10.20;;;3.10;;
9860;SDS011;4969;52.304;4.968;2023-04-24T08:50:51;13.13;;;3.17;;
9860;SDS011;4969;52.304;4.968;2023-04-24T08:53:17;8.93;;;2.67;;
9860;SDS011;4969;52.304;4.968;2023-04-24T08:55:45;10.53;;;3.00;;
9860;SDS011;4969;52.304;4.968;2023-04-24T08:58:13;9.43;;;2.77;;
9860;SDS011;4969;52.304;4.968;2023-04-24T09:00:41;10.63;;;3.23;;
9860;SDS011;4969;52.304;4.968;2023-04-24T09:03:11;8.77;;;2.83;;
9860;SDS011;4969;52.304;4.968;2023-04-24T09:05:41;8.60;;;2.80;;
9860;SDS011;4969;52.304;4.968;2023-04-24T09:08:10;4.93;;;2.37;;
9860;SDS011;4969;52.304;4.968;2023-04-24T09:10:38;10.83;;;2.90;;
9860;SDS011;4969;52.304;4.968;2023-04-24T09:13:06;8.80;;;3.00;;
9860;SDS011;4969;52.304;4.968;2023-04-24T09:15:34;7.77;;;3.13;;
9860;SDS011;4969;52.304;4.968;2023-04-24T09:18:00;6.60;;;2.33;;
9860;SDS011;4969;52.304;4.968;2023-04-24T09:20:27;8.30;;;2.53;;
9860;SDS011;4969;52.304;4.968;2023-04-24T09:22:55;9.37;;;3.07;;
9860;SDS011;4969;52.304;4.968;2023-04-24T09:25:25;7.03;;;2.70;;
9860;SDS011;4969;52.304;4.968;2023-04-24T09:27:59;10.10;;;3.93;;
9860;SDS011;4969;52.304;4.968;2023-04-24T09:30:27;9.77;;;2.70;;
9860;SDS011;4969;52.304;4.968;2023-04-24T09:35:40;6.80;;;3.73;;
9860;SDS011;4969;52.304;4.968;2023-04-24T09:38:09;8.00;;;2.70;;
9860;SDS011;4969;52.304;4.968;2023-04-24T09:40:36;9.43;;;2.70;;
9860;SDS011;4969;52.304;4.968;2023-04-24T09:43:02;6.50;;;2.17;;
9860;SDS011;4969;52.304;4.968;2023-04-24T09:45:34;7.47;;;2.17;;
9860;SDS011;4969;52.304;4.968;2023-04-24T09:48:02;11.10;;;2.60;;
9860;SDS011;4969;52.304;4.968;2023-04-24T09:50:29;8.93;;;2.33;;
9860;SDS011;4969;52.304;4.968;2023-04-24T09:53:01;5.33;;;1.60;;
9860;SDS011;4969;52.304;4.968;2023-04-24T09:55:30;5.13;;;2.20;;
9860;SDS011;4969;52.304;4.968;2023-04-24T09:57:57;5.57;;;1.80;;
9860;SDS011;4969;52.304;4.968;2023-04-24T10:00:25;3.13;;;1.33;;
9860;SDS011;4969;52.304;4.968;2023-04-24T10:02:56;5.63;;;1.60;;
9860;SDS011;4969;52.304;4.968;2023-04-24T10:05:25;4.20;;;1.60;;
9860;SDS011;4969;52.304;4.968;2023-04-24T10:07:56;8.90;;;2.23;;
9860;SDS011;4969;52.304;4.968;2023-04-24T10:10:23;6.30;;;1.77;;
9860;SDS011;4969;52.304;4.968;2023-04-24T10:12:52;4.33;;;1.80;;
9860;SDS011;4969;52.304;4.968;2023-04-24T10:15:19;5.03;;;1.60;;
9860;SDS011;4969;52.304;4.968;2023-04-24T10:17:47;6.20;;;2.00;;
9860;SDS011;4969;52.304;4.968;2023-04-24T10:20:17;5.53;;;1.73;;
9860;SDS011;4969;52.304;4.968;2023-04-24T10:22:48;4.30;;;1.40;;
9860;SDS011;4969;52.304;4.968;2023-04-24T10:25:16;4.50;;;1.70;;
9860;SDS011;4969;52.304;4.968;2023-04-24T10:27:45;2.60;;;1.40;;
9860;SDS011;4969;52.304;4.968;2023-04-24T10:30:14;2.97;;;1.30;;
9860;SDS011;4969;52.304;4.968;2023-04-24T10:32:41;2.83;;;1.53;;
9860;SDS011;4969;52.304;4.968;2023-04-24T10:35:08;3.90;;;1.50;;
9860;SDS011;4969;52.304;4.968;2023-04-24T10:37:36;4.13;;;1.47;;
9860;SDS011;4969;52.304;4.968;2023-04-24T10:40:05;2.63;;;1.40;;
9860;SDS011;4969;52.304;4.968;2023-04-24T10:42:34;6.93;;;1.93;;
9860;SDS011;4969;52.304;4.968;2023-04-24T10:45:04;4.37;;;1.67;;
9860;SDS011;4969;52.304;4.968;2023-04-24T10:47:40;5.47;;;2.07;;
9860;SDS011;4969;52.304;4.968;2023-04-24T10:50:08;3.13;;;1.20;;
9860;SDS011;4969;52.304;4.968;2023-04-24T10:52:45;4.43;;;1.17;;
9860;SDS011;4969;52.304;4.968;2023-04-24T10:55:12;1.70;;;1.07;;
9860;SDS011;4969;52.304;4.968;2023-04-24T10:57:39;3.90;;;1.00;;
9860;SDS011;4969;52.304;4.968;2023-04-24T11:00:16;3.17;;;1.17;;
9860;SDS011;4969;52.304;4.968;2023-04-24T11:02:47;2.10;;;0.93;;
9860;SDS011;4969;52.304;4.968;2023-04-24T11:05:18;2.30;;;1.03;;
9860;SDS011;4969;52.304;4.968;2023-04-24T11:10:38;3.10;;;1.70;;
9860;SDS011;4969;52.304;4.968;2023-04-24T11:13:06;2.83;;;1.20;;
9860;SDS011;4969;52.304;4.968;2023-04-24T11:15:33;1.97;;;1.03;;
9860;SDS011;4969;52.304;4.968;2023-04-24T11:18:01;4.47;;;1.50;;
9860;SDS011;4969;52.304;4.968;2023-04-24T11:20:28;2.10;;;1.20;;
9860;SDS011;4969;52.304;4.968;2023-04-24T11:22:55;4.23;;;1.70;;
9860;SDS011;4969;52.304;4.968;2023-04-24T11:25:30;6.53;;;1.70;;
9860;SDS011;4969;52.304;4.968;2023-04-24T11:28:03;5.30;;;2.30;;
9860;SDS011;4969;52.304;4.968;2023-04-24T11:30:31;5.47;;;1.97;;
9860;SDS011;4969;52.304;4.968;2023-04-24T11:33:02;8.00;;;3.00;;
9860;SDS011;4969;52.304;4.968;2023-04-24T11:35:30;4.70;;;1.87;;
9860;SDS011;4969;52.304;4.968;2023-04-24T11:38:02;5.80;;;2.03;;
9860;SDS011;4969;52.304;4.968;2023-04-24T11:40:30;7.83;;;3.93;;
9860;SDS011;4969;52.304;4.968;2023-04-24T11:42:59;2.73;;;1.60;;
9860;SDS011;4969;52.304;4.968;2023-04-24T11:45:26;3.60;;;2.20;;
9860;SDS011;4969;52.304;4.968;2023-04-24T11:47:54;3.90;;;1.63;;
9860;SDS011;4969;52.304;4.968;2023-04-24T11:50:22;5.10;;;1.47;;
9860;SDS011;4969;52.304;4.968;2023-04-24T11:52:51;4.90;;;2.10;;
9860;SDS011;4969;52.304;4.968;2023-04-24T11:55:24;6.97;;;3.03;;
9860;SDS011;4969;52.304;4.968;2023-04-24T11:57:53;6.77;;;2.67;;
9860;SDS011;4969;52.304;4.968;2023-04-24T12:00:23;8.30;;;4.10;;
9860;SDS011;4969;52.304;4.968;2023-04-24T12:02:51;5.47;;;1.97;;
9860;SDS011;4969;52.304;4.968;2023-04-24T12:05:30;6.80;;;3.23;;
9860;SDS011;4969;52.304;4.968;2023-04-24T12:07:56;6.67;;;4.20;;
9860;SDS011;4969;52.304;4.968;2023-04-24T12:10:24;10.17;;;3.47;;
9860;SDS011;4969;52.304;4.968;2023-04-24T12:12:55;7.57;;;2.63;;
9860;SDS011;4969;52.304;4.968;2023-04-24T12:15:22;9.27;;;3.70;;
9860;SDS011;4969;52.304;4.968;2023-04-24T12:17:50;10.40;;;3.23;;
9860;SDS011;4969;52.304;4.968;2023-04-24T12:20:19;9.37;;;3.17;;
9860;SDS011;4969;52.304;4.968;2023-04-24T12:22:52;14.30;;;3.20;;
9860;SDS011;4969;52.304;4.968;2023-04-24T12:25:20;10.23;;;3.73;;
9860;SDS011;4969;52.304;4.968;2023-04-24T12:27:51;7.23;;;3.10;;
9860;SDS011;4969;52.304;4.968;2023-04-24T12:30:19;8.77;;;3.00;;
9860;SDS011;4969;52.304;4.968;2023-04-24T12:32:46;13.83;;;3.87;;
9860;SDS011;4969;52.304;4.968;2023-04-24T12:35:18;11.00;;;3.43;;
9860;SDS011;4969;52.304;4.968;2023-04-24T12:37:45;13.87;;;3.70;;
9860;SDS011;4969;52.304;4.968;2023-04-24T12:40:14;9.27;;;4.00;;
9860;SDS011;4969;52.304;4.968;2023-04-24T12:42:42;11.47;;;3.80;;
9860;SDS011;4969;52.304;4.968;2023-04-24T12:45:09;10.57;;;3.00;;
9860;SDS011;4969;52.304;4.968;2023-04-24T12:47:37;11.17;;;3.40;;
9860;SDS011;4969;52.304;4.968;2023-04-24T12:50:05;10.90;;;3.70;;
9860;SDS011;4969;52.304;4.968;2023-04-24T12:52:34;12.10;;;4.63;;
9860;SDS011;4969;52.304;4.968;2023-04-24T12:55:01;5.50;;;2.40;;
9860;SDS011;4969;52.304;4.968;2023-04-24T12:57:31;8.37;;;3.00;;
9860;SDS011;4969;52.304;4.968;2023-04-24T12:59:58;9.93;;;3.53;;
9860;SDS011;4969;52.304;4.968;2023-04-24T13:02:25;10.30;;;4.10;;
9860;SDS011;4969;52.304;4.968;2023-04-24T13:04:54;11.93;;;3.43;;
9860;SDS011;4969;52.304;4.968;2023-04-24T13:07:20;8.10;;;3.17;;
9860;SDS011;4969;52.304;4.968;2023-04-24T13:09:47;11.53;;;3.40;;
9860;SDS011;4969;52.304;4.968;2023-04-24T13:12:15;8.73;;;3.00;;
9860;SDS011;4969;52.304;4.968;2023-04-24T13:14:43;12.77;;;4.33;;
9860;SDS011;4969;52.304;4.968;2023-04-24T13:17:10;15.27;;;4.00;;
9860;SDS011;4969;52.304;4.968;2023-04-24T13:19:38;14.03;;;5.67;;
9860;SDS011;4969;52.304;4.968;2023-04-24T13:22:05;13.57;;;3.63;;
9860;SDS011;4969;52.304;4.968;2023-04-24T13:24:32;9.70;;;3.70;;
9860;SDS011;4969;52.304;4.968;2023-04-24T13:26:59;10.70;;;3.50;;
9860;SDS011;4969;52.304;4.968;2023-04-24T13:29:26;12.53;;;4.83;;
9860;SDS011;4969;52.304;4.968;2023-04-24T13:31:54;8.33;;;2.93;;
9860;SDS011;4969;52.304;4.968;2023-04-24T13:34:21;5.97;;;2.73;;
9860;SDS011;4969;52.304;4.968;2023-04-24T13:36:48;11.97;;;3.57;;
9860;SDS011;4969;52.304;4.968;2023-04-24T13:39:16;9.63;;;3.60;;
9860;SDS011;4969;52.304;4.968;2023-04-24T13:41:42;7.73;;;3.57;;
9860;SDS011;4969;52.304;4.968;2023-04-24T13:44:10;7.67;;;2.87;;
9860;SDS011;4969;52.304;4.968;2023-04-24T13:46:36;7.67;;;3.00;;
9860;SDS011;4969;52.304;4.968;2023-04-24T13:49:04;7.70;;;3.40;;
9860;SDS011;4969;52.304;4.968;2023-04-24T13:51:32;16.57;;;7.10;;
9860;SDS011;4969;52.304;4.968;2023-04-24T13:53:59;12.13;;;3.73;;
9860;SDS011;4969;52.304;4.968;2023-04-24T13:56:25;12.70;;;4.00;;
9860;SDS011;4969;52.304;4.968;2023-04-24T13:58:52;12.00;;;3.90;;
9860;SDS011;4969;52.304;4.968;2023-04-24T14:01:20;13.57;;;5.30;;
9860;SDS011;4969;52.304;4.968;2023-04-24T14:03:49;12.47;;;4.37;;
9860;SDS011;4969;52.304;4.968;2023-04-24T14:06:17;9.10;;;3.30;;
9860;SDS011;4969;52.304;4.968;2023-04-24T14:08:44;7.57;;;3.20;;
9860;SDS011;4969;52.304;4.968;2023-04-24T14:11:10;17.93;;;8.20;;
9860;SDS011;4969;52.304;4.968;2023-04-24T14:13:37;7.93;;;2.90;;
9860;SDS011;4969;52.304;4.968;2023-04-24T14:16:05;7.10;;;3.00;;
9860;SDS011;4969;52.304;4.968;2023-04-24T14:18:31;9.50;;;4.10;;
9860;SDS011;4969;52.304;4.968;2023-04-24T14:20:58;9.53;;;3.00;;
9860;SDS011;4969;52.304;4.968;2023-04-24T14:23:27;8.70;;;4.63;;
9860;SDS011;4969;52.304;4.968;2023-04-24T14:25:54;6.87;;;3.20;;
9860;SDS011;4969;52.304;4.968;2023-04-24T14:28:20;9.43;;;3.37;;
9860;SDS011;4969;52.304;4.968;2023-04-24T14:30:47;10.83;;;3.83;;
9860;SDS011;4969;52.304;4.968;2023-04-24T14:33:14;9.50;;;3.80;;
9860;SDS011;4969;52.304;4.968;2023-04-24T14:35:41;10.57;;;4.67;;
9860;SDS011;4969;52.304;4.968;2023-04-24T14:38:08;11.73;;;3.90;;
9860;SDS011;4969;52.304;4.968;2023-04-24T14:40:36;9.17;;;4.00;;
9860;SDS011;4969;52.304;4.968;2023-04-24T14:43:03;8.60;;;3.93;;
9860;SDS011;4969;52.304;4.968;2023-04-24T14:45:30;13.27;;;4.17;;
9860;SDS011;4969;52.304;4.968;2023-04-24T14:47:57;12.10;;;4.90;;
9860;SDS011;4969;52.304;4.968;2023-04-24T14:50:23;9.93;;;4.50;;
9860;SDS011;4969;52.304;4.968;2023-04-24T14:52:52;14.53;;;6.00;;
9860;SDS011;4969;52.304;4.968;2023-04-24T14:55:19;16.00;;;7.27;;
9860;SDS011;4969;52.304;4.968;2023-04-24T14:57:47;9.63;;;4.00;;
9860;SDS011;4969;52.304;4.968;2023-04-24T15:00:14;16.40;;;5.03;;
9860;SDS011;4969;52.304;4.968;2023-04-24T15:02:42;12.73;;;4.83;;
9860;SDS011;4969;52.304;4.968;2023-04-24T15:05:09;12.47;;;4.03;;
9860;SDS011;4969;52.304;4.968;2023-04-24T15:07:36;10.87;;;4.27;;
9860;SDS011;4969;52.304;4.968;2023-04-24T15:10:03;10.67;;;3.87;;
9860;SDS011;4969;52.304;4.968;2023-04-24T15:12:31;12.07;;;4.70;;
9860;SDS011;4969;52.304;4.968;2023-04-24T15:14:59;10.80;;;3.90;;
9860;SDS011;4969;52.304;4.968;2023-04-24T15:17:25;9.20;;;3.60;;